createdAt,value
2022-10-18T00:00:44.257Z,8.93
2022-10-18T00:03:10.869Z,8.86
2022-10-18T00:05:40.397Z,8.87
2022-10-18T00:08:06.969Z,8.92
2022-10-18T00:10:33.694Z,8.93
2022-10-18T00:13:00.375Z,8.87
2022-10-18T00:15:26.967Z,8.84
2022-10-18T00:17:53.616Z,8.85
2022-10-18T00:20:20.218Z,8.74
2022-10-18T00:22:46.901Z,8.79
2022-10-18T00:25:13.662Z,8.75
2022-10-18T00:27:40.335Z,8.74
2022-10-18T00:30:07.384Z,8.70
2022-10-18T00:32:38.503Z,8.65
2022-10-18T00:35:05.745Z,8.68
2022-10-18T00:37:32.877Z,8.67
2022-10-18T00:39:59.465Z,8.66
2022-10-18T00:42:32.414Z,8.70
2022-10-18T00:45:10.709Z,8.78
2022-10-18T00:47:37.339Z,8.69
2022-10-18T00:50:06.127Z,8.66
2022-10-18T00:52:38.837Z,8.73
2022-10-18T00:55:05.913Z,8.70
2022-10-18T00:57:32.985Z,8.77
2022-10-18T00:59:59.670Z,8.67
2022-10-18T01:02:26.417Z,8.66
2022-10-18T01:04:53.127Z,8.66
2022-10-18T01:07:27.588Z,8.69
2022-10-18T01:10:08.688Z,8.63
2022-10-18T01:12:44.495Z,8.68
2022-10-18T01:15:13.505Z,8.67
2022-10-18T01:17:58.932Z,8.60
2022-10-18T01:20:52.208Z,8.57
2022-10-18T01:23:50.929Z,8.63
2022-10-18T01:26:48.067Z,8.53
2022-10-18T01:29:26.478Z,8.49
2022-10-18T01:32:01.313Z,8.46
2022-10-18T01:34:29.016Z,8.49
2022-10-18T01:36:55.767Z,8.48
2022-10-18T01:39:34.389Z,8.51
2022-10-18T01:42:01.862Z,8.46
2022-10-18T01:44:29.501Z,8.46
2022-10-18T01:46:56.391Z,8.42
2022-10-18T01:49:23.734Z,8.37
2022-10-18T01:51:50.352Z,8.37
2022-10-18T01:54:23.841Z,8.38
2022-10-18T01:57:07.864Z,8.39
2022-10-18T01:59:43.341Z,8.29
2022-10-18T02:02:23.681Z,8.18
2022-10-18T02:05:08.782Z,8.10
2022-10-18T02:08:00.105Z,8.06
2022-10-18T02:10:50.213Z,8.00
2022-10-18T02:13:19.024Z,7.97
2022-10-18T02:15:47.534Z,7.98
2022-10-18T02:18:17.661Z,7.97
2022-10-18T02:20:44.336Z,8.05
2022-10-18T02:23:11.251Z,7.97
2022-10-18T02:25:40.669Z,7.95
2022-10-18T02:28:07.356Z,8.01
2022-10-18T02:30:41.073Z,8.05
2022-10-18T02:33:17.932Z,8.02
2022-10-18T02:35:48.309Z,8.04
2022-10-18T02:38:14.970Z,8.04
2022-10-18T02:40:41.697Z,8.00
2022-10-18T02:43:08.308Z,7.99
2022-10-18T02:45:35.245Z,8.06
2022-10-18T02:48:01.786Z,7.96
2022-10-18T02:50:28.408Z,7.93
2022-10-18T02:52:54.994Z,7.90
2022-10-18T02:55:21.634Z,7.86
2022-10-18T02:57:48.303Z,7.92
2022-10-18T03:00:15.346Z,7.92
2022-10-18T03:02:42.010Z,7.90
2022-10-18T03:05:08.648Z,7.95
2022-10-18T03:07:35.477Z,7.85
2022-10-18T03:10:02.209Z,7.87
2022-10-18T03:12:28.842Z,7.89
2022-10-18T03:14:55.433Z,7.97
2022-10-18T03:17:22.098Z,7.92
2022-10-18T03:19:48.764Z,8.00
2022-10-18T03:22:15.410Z,8.12
2022-10-18T03:24:42.101Z,8.14
2022-10-18T03:27:08.790Z,8.12
2022-10-18T03:29:35.449Z,8.24
2022-10-18T03:32:02.044Z,8.25
2022-10-18T03:34:28.688Z,8.26
2022-10-18T03:36:55.331Z,8.32
2022-10-18T03:39:21.923Z,8.29
2022-10-18T03:41:48.518Z,8.31
2022-10-18T03:44:15.248Z,8.31
2022-10-18T03:46:41.874Z,8.33
2022-10-18T03:49:08.441Z,8.31
2022-10-18T03:51:35.014Z,8.22
2022-10-18T03:54:01.693Z,8.27
2022-10-18T03:56:28.414Z,8.25
2022-10-18T03:58:55.065Z,8.22
2022-10-18T04:01:21.777Z,8.19
2022-10-18T04:03:48.405Z,8.19
2022-10-18T04:06:15.103Z,8.08
2022-10-18T04:08:41.712Z,8.07
2022-10-18T04:11:08.371Z,8.10
2022-10-18T04:13:35.311Z,8.03
2022-10-18T04:16:01.841Z,8.03
2022-10-18T04:18:28.469Z,8.03
2022-10-18T04:20:55.154Z,7.98
2022-10-18T04:23:21.743Z,7.95
2022-10-18T04:25:49.083Z,8.01
2022-10-18T04:28:15.951Z,8.00
2022-10-18T04:30:42.606Z,7.94
2022-10-18T04:33:09.165Z,7.87
2022-10-18T04:35:35.754Z,7.90
2022-10-18T04:38:02.347Z,7.76
2022-10-18T04:40:28.991Z,7.74
2022-10-18T04:42:55.866Z,7.72
2022-10-18T04:45:24.075Z,7.71
2022-10-18T04:47:50.930Z,7.74
2022-10-18T04:50:17.522Z,7.79
2022-10-18T04:52:44.216Z,7.82
2022-10-18T04:55:10.899Z,7.73
2022-10-18T04:57:37.539Z,7.71
2022-10-18T05:00:04.932Z,7.67
2022-10-18T05:02:31.937Z,7.69
2022-10-18T05:04:58.742Z,7.66
2022-10-18T05:07:25.498Z,7.68
2022-10-18T05:09:52.111Z,7.61
2022-10-18T05:12:18.749Z,7.61
2022-10-18T05:14:45.409Z,7.54
2022-10-18T05:17:12.015Z,7.55
2022-10-18T05:19:38.694Z,7.44
2022-10-18T05:22:05.372Z,7.42
2022-10-18T05:24:32.129Z,7.43
2022-10-18T05:26:58.777Z,7.36
2022-10-18T05:29:25.579Z,7.32
2022-10-18T05:31:52.493Z,7.34
2022-10-18T05:34:19.038Z,7.33
2022-10-18T05:36:45.743Z,7.37
2022-10-18T05:39:12.384Z,7.44
2022-10-18T05:41:38.961Z,7.33
2022-10-18T05:44:05.816Z,7.46
2022-10-18T05:46:32.497Z,7.51
2022-10-18T05:48:59.434Z,7.52
2022-10-18T05:51:26.089Z,7.46
2022-10-18T05:53:52.654Z,7.50
2022-10-18T05:56:19.304Z,7.62
2022-10-18T05:58:50.194Z,7.71
2022-10-18T06:01:16.878Z,7.73
2022-10-18T06:03:43.535Z,7.74
2022-10-18T06:06:11.044Z,7.88
2022-10-18T06:08:38.083Z,7.94
2022-10-18T06:11:07.753Z,8.01
2022-10-18T06:13:34.735Z,8.10
2022-10-18T06:16:01.351Z,8.24
2022-10-18T06:18:28.021Z,8.32
2022-10-18T06:20:58.416Z,8.37
2022-10-18T06:23:26.383Z,8.46
2022-10-18T06:25:53.041Z,8.53
2022-10-18T06:28:19.675Z,8.57
2022-10-18T06:30:46.978Z,8.67
2022-10-18T06:33:13.539Z,8.77
2022-10-18T06:35:40.132Z,8.88
2022-10-18T06:38:06.729Z,8.96
2022-10-18T06:40:33.373Z,9.07
2022-10-18T06:43:00.685Z,9.06
2022-10-18T06:45:37.296Z,9.10
2022-10-18T06:48:04.035Z,9.18
2022-10-18T06:50:30.733Z,9.21
2022-10-18T06:52:57.876Z,9.24
2022-10-18T06:55:24.479Z,9.42
2022-10-18T06:57:51.820Z,9.58
2022-10-18T07:00:18.501Z,9.74
2022-10-18T07:02:45.085Z,9.95
2022-10-18T07:05:11.635Z,10.08
2022-10-18T07:07:38.345Z,10.08
2022-10-18T07:10:05.481Z,9.96
2022-10-18T07:12:32.355Z,9.93
2022-10-18T07:14:59.036Z,9.97
2022-10-18T07:17:25.652Z,9.98
2022-10-18T07:19:52.298Z,9.97
2022-10-18T07:22:18.858Z,10.04
2022-10-18T07:24:45.558Z,10.14
2022-10-18T07:27:12.133Z,10.24
2022-10-18T07:29:38.671Z,10.15
2022-10-18T07:32:05.390Z,10.16
2022-10-18T07:34:31.931Z,10.14
2022-10-18T07:36:58.535Z,10.20
2022-10-18T07:39:25.107Z,10.07
2022-10-18T07:41:51.621Z,10.11
2022-10-18T07:44:18.154Z,10.04
2022-10-18T07:46:44.703Z,10.15
2022-10-18T07:49:11.781Z,10.23
2022-10-18T07:51:38.432Z,10.27
2022-10-18T07:54:05.773Z,10.37
2022-10-18T07:56:32.282Z,10.47
2022-10-18T07:58:58.831Z,10.61
2022-10-18T08:01:25.682Z,10.75
2022-10-18T08:03:52.442Z,10.86
2022-10-18T08:06:19.278Z,10.95
2022-10-18T08:08:45.846Z,11.13
2022-10-18T08:11:20.063Z,11.07
2022-10-18T08:13:46.872Z,11.17
2022-10-18T08:16:15.527Z,11.27
2022-10-18T08:18:42.112Z,11.40
2022-10-18T08:21:10.059Z,11.54
2022-10-18T08:23:37.010Z,11.55
2022-10-18T08:26:11.431Z,11.60
2022-10-18T08:28:38.020Z,11.72
2022-10-18T08:31:05.800Z,11.68
2022-10-18T08:33:32.816Z,11.70
2022-10-18T08:36:00.543Z,11.77
2022-10-18T08:38:30.689Z,11.88
2022-10-18T08:40:59.972Z,12.00
2022-10-18T08:43:40.711Z,12.30
2022-10-18T08:46:10.885Z,12.74
2022-10-18T08:48:40.264Z,13.03
2022-10-18T08:51:07.342Z,13.30
2022-10-18T08:53:40.093Z,13.57
2022-10-18T08:56:15.868Z,13.59
2022-10-18T08:58:45.647Z,13.49
2022-10-18T09:01:39.603Z,13.51
2022-10-18T09:04:34.162Z,13.69
2022-10-18T09:07:13.743Z,14.03
2022-10-18T09:10:00.618Z,14.69
2022-10-18T09:12:30.389Z,15.30
2022-10-18T09:15:17.041Z,15.36
2022-10-18T09:18:18.733Z,14.97
2022-10-18T09:20:49.855Z,14.72
2022-10-18T09:23:20.619Z,14.71
2022-10-18T09:25:48.897Z,14.44
2022-10-18T09:28:36.340Z,14.35
2022-10-18T09:31:23.316Z,14.30
2022-10-18T09:33:54.331Z,14.28
2022-10-18T09:36:28.375Z,14.31
2022-10-18T09:39:01.500Z,14.48
2022-10-18T09:41:31.154Z,14.64
2022-10-18T09:44:10.528Z,14.79
2022-10-18T09:46:38.953Z,14.98
2022-10-18T09:49:16.387Z,15.03
2022-10-18T09:51:43.193Z,15.22
2022-10-18T09:54:21.806Z,15.47
2022-10-18T09:57:13.860Z,15.73
2022-10-18T09:59:42.618Z,15.80
2022-10-18T10:02:16.910Z,16.00
2022-10-18T10:04:43.666Z,16.51
2022-10-18T10:07:34.928Z,17.44
2022-10-18T10:10:17.580Z,18.51
2022-10-18T10:12:44.198Z,18.80
2022-10-18T10:15:27.019Z,18.97
2022-10-18T10:17:57.669Z,19.41
2022-10-18T10:20:37.694Z,20.25
2022-10-18T10:23:16.141Z,20.62
2022-10-18T10:25:42.725Z,20.28
2022-10-18T10:28:16.714Z,19.73
2022-10-18T10:30:43.255Z,20.02
2022-10-18T10:33:32.384Z,19.78
2022-10-18T10:35:59.719Z,19.88
2022-10-18T10:38:27.426Z,19.79
2022-10-18T10:40:54.107Z,19.77
2022-10-18T10:43:39.993Z,19.33
2022-10-18T10:46:14.455Z,19.43
2022-10-18T10:49:00.391Z,19.40
2022-10-18T10:51:39.110Z,19.05
2022-10-18T10:54:16.178Z,19.05
2022-10-18T10:56:58.463Z,18.86
2022-10-18T10:59:26.033Z,18.46
2022-10-18T11:02:14.029Z,18.56
2022-10-18T11:04:41.011Z,18.62
2022-10-18T11:07:27.600Z,18.68
2022-10-18T11:10:22.203Z,18.88
2022-10-18T11:13:10.155Z,18.67
2022-10-18T11:15:39.279Z,18.65
2022-10-18T11:18:29.470Z,18.38
2022-10-18T11:21:09.843Z,18.35
2022-10-18T11:23:40.402Z,18.30
2022-10-18T11:26:13.074Z,18.50
2022-10-18T11:28:42.469Z,18.71
2022-10-18T11:31:27.155Z,18.93
2022-10-18T11:34:15.675Z,19.18
2022-10-18T11:37:22.576Z,19.21
2022-10-18T11:40:35.153Z,18.78
2022-10-18T11:43:30.275Z,18.36
2022-10-18T11:46:29.756Z,18.27
2022-10-18T11:49:03.530Z,18.42
2022-10-18T11:51:56.037Z,18.77
2022-10-18T11:54:51.346Z,19.02
2022-10-18T11:57:44.118Z,19.13
2022-10-18T12:00:23.137Z,19.06
2022-10-18T12:02:55.718Z,19.22
2022-10-18T12:05:24.341Z,19.19
2022-10-18T12:08:23.375Z,19.12
2022-10-18T12:11:04.596Z,19.18
2022-10-18T12:13:49.130Z,19.18
2022-10-18T12:16:16.285Z,18.92
2022-10-18T12:19:07.197Z,18.77
2022-10-18T12:21:34.193Z,18.76
2022-10-18T12:24:17.384Z,18.84
2022-10-18T12:26:44.017Z,18.84
2022-10-18T12:29:32.470Z,19.06
2022-10-18T12:32:01.564Z,19.13
2022-10-18T12:34:40.724Z,19.24
2022-10-18T12:37:44.240Z,19.33
2022-10-18T12:40:25.506Z,19.05
2022-10-18T12:42:52.348Z,19.06
2022-10-18T12:45:30.135Z,19.01
2022-10-18T12:47:59.812Z,19.01
2022-10-18T12:50:31.431Z,19.17
2022-10-18T12:53:20.793Z,19.09
2022-10-18T12:55:51.185Z,19.17
2022-10-18T12:58:26.038Z,19.09
2022-10-18T13:00:54.332Z,19.08
2022-10-18T13:03:20.942Z,19.04
2022-10-18T13:05:55.915Z,19.01
2022-10-18T13:08:40.487Z,19.28
2022-10-18T13:11:10.323Z,19.32
2022-10-18T13:13:58.311Z,19.30
2022-10-18T13:16:43.781Z,19.23
2022-10-18T13:19:28.993Z,19.21
2022-10-18T13:22:12.495Z,18.93
2022-10-18T13:24:42.446Z,19.02
2022-10-18T13:27:35.644Z,18.93
2022-10-18T13:30:18.789Z,19.09
2022-10-18T13:33:22.850Z,19.04
2022-10-18T13:35:52.245Z,18.87
2022-10-18T13:38:40.903Z,18.93
2022-10-18T13:41:10.309Z,19.20
2022-10-18T13:43:52.656Z,19.00
2022-10-18T13:46:23.949Z,18.90
2022-10-18T13:48:50.747Z,18.65
2022-10-18T13:51:17.564Z,18.60
2022-10-18T13:53:58.828Z,18.64
2022-10-18T13:56:48.930Z,18.66
2022-10-18T13:59:26.177Z,18.74
2022-10-18T14:02:11.186Z,18.75
2022-10-18T14:04:43.669Z,18.77
2022-10-18T14:07:10.328Z,18.64
2022-10-18T14:09:47.842Z,18.61
2022-10-18T14:12:40.868Z,18.53
2022-10-18T14:15:16.299Z,18.41
2022-10-18T14:17:52.946Z,18.37
2022-10-18T14:20:34.594Z,18.19
2022-10-18T14:23:20.398Z,18.11
2022-10-18T14:25:47.136Z,18.17
2022-10-18T14:28:15.633Z,17.94
2022-10-18T14:31:01.175Z,18.11
2022-10-18T14:33:37.359Z,18.12
2022-10-18T14:36:08.091Z,18.20
2022-10-18T14:38:39.145Z,18.34
2022-10-18T14:41:26.940Z,18.36
2022-10-18T14:44:09.487Z,18.33
2022-10-18T14:46:44.618Z,18.28
2022-10-18T14:49:11.401Z,18.27
2022-10-18T14:51:39.112Z,18.42
2022-10-18T14:54:06.948Z,18.23
2022-10-18T14:56:37.911Z,18.18
2022-10-18T14:59:05.108Z,17.94
2022-10-18T15:02:23.518Z,17.63
2022-10-18T15:05:04.937Z,17.44
2022-10-18T15:07:32.121Z,17.27
2022-10-18T15:10:00.156Z,17.23
2022-10-18T15:12:27.114Z,17.10
2022-10-18T15:14:56.735Z,17.07
2022-10-18T15:17:30.777Z,16.92
2022-10-18T15:20:05.000Z,16.92
2022-10-18T15:22:33.449Z,16.83
2022-10-18T15:25:11.478Z,16.79
2022-10-18T15:27:38.907Z,16.81
2022-10-18T15:30:20.475Z,16.77
2022-10-18T15:32:51.525Z,16.71
2022-10-18T15:35:38.460Z,16.61
2022-10-18T15:38:27.784Z,16.56
2022-10-18T15:40:54.847Z,16.41
2022-10-18T15:43:24.539Z,16.37
2022-10-18T15:45:52.756Z,16.30
2022-10-18T15:48:36.170Z,16.25
2022-10-18T15:51:06.988Z,16.14
2022-10-18T15:53:41.713Z,16.03
2022-10-18T15:56:30.645Z,15.97
2022-10-18T15:59:00.604Z,15.77
2022-10-18T16:01:36.615Z,15.71
2022-10-18T16:04:24.917Z,15.61
2022-10-18T16:06:51.666Z,15.56
2022-10-18T16:09:19.934Z,15.49
2022-10-18T16:11:47.388Z,15.39
2022-10-18T16:14:14.301Z,15.35
2022-10-18T16:16:41.083Z,15.37
2022-10-18T16:19:08.243Z,15.41
2022-10-18T16:21:36.493Z,15.30
2022-10-18T16:24:03.658Z,15.24
2022-10-18T16:26:32.881Z,15.06
2022-10-18T16:28:59.647Z,14.92
2022-10-18T16:31:28.280Z,14.80
2022-10-18T16:33:57.686Z,14.83
2022-10-18T16:36:31.372Z,14.78
2022-10-18T16:38:58.515Z,14.70
2022-10-18T16:41:38.275Z,14.68
2022-10-18T16:44:06.454Z,14.49
2022-10-18T16:46:36.141Z,14.35
2022-10-18T16:49:03.145Z,14.32
2022-10-18T16:51:29.720Z,14.27
2022-10-18T16:53:56.363Z,14.13
2022-10-18T16:56:28.506Z,14.05
2022-10-18T16:58:55.074Z,13.98
2022-10-18T17:01:22.473Z,14.00
2022-10-18T17:03:49.153Z,13.83
2022-10-18T17:06:18.016Z,13.88
2022-10-18T17:08:45.011Z,13.71
2022-10-18T17:11:11.843Z,13.58
2022-10-18T17:13:38.596Z,13.51
2022-10-18T17:16:05.463Z,13.46
2022-10-18T17:18:32.218Z,13.43
2022-10-18T17:21:01.878Z,13.26
2022-10-18T17:23:31.414Z,13.27
2022-10-18T17:26:08.579Z,13.26
2022-10-18T17:28:44.983Z,13.17
2022-10-18T17:31:12.313Z,13.16
2022-10-18T17:33:39.270Z,12.96
2022-10-18T17:36:06.192Z,12.91
2022-10-18T17:38:42.576Z,12.81
2022-10-18T17:41:17.043Z,12.81
2022-10-18T17:43:44.367Z,12.77
2022-10-18T17:46:15.103Z,12.62
2022-10-18T17:48:42.141Z,12.60
2022-10-18T17:51:13.016Z,12.56
2022-10-18T17:53:41.157Z,12.60
2022-10-18T17:56:08.128Z,12.61
2022-10-18T17:58:35.149Z,12.60
2022-10-18T18:01:12.100Z,12.51
2022-10-18T18:03:38.933Z,12.56
2022-10-18T18:06:36.126Z,12.45
2022-10-18T18:09:07.471Z,12.45
2022-10-18T18:11:35.217Z,12.46
2022-10-18T18:14:01.963Z,12.45
2022-10-18T18:16:29.555Z,12.47
2022-10-18T18:18:57.188Z,12.52
2022-10-18T18:21:29.959Z,12.45
2022-10-18T18:23:57.126Z,12.48
2022-10-18T18:26:24.002Z,12.49
2022-10-18T18:28:50.761Z,12.49
2022-10-18T18:31:22.002Z,12.45
2022-10-18T18:33:48.667Z,12.50
2022-10-18T18:36:15.332Z,12.57
2022-10-18T18:38:42.082Z,12.53
2022-10-18T18:41:18.720Z,12.53
2022-10-18T18:43:56.210Z,12.56
2022-10-18T18:46:23.346Z,12.51
2022-10-18T18:48:51.882Z,12.48
2022-10-18T18:51:19.514Z,12.50
2022-10-18T18:53:46.390Z,12.54
2022-10-18T18:56:18.334Z,12.46
2022-10-18T18:58:47.390Z,12.40
2022-10-18T19:01:25.105Z,12.38
2022-10-18T19:03:53.455Z,12.41
2022-10-18T19:06:24.778Z,12.38
2022-10-18T19:08:51.483Z,12.40
2022-10-18T19:11:19.469Z,12.31
2022-10-18T19:13:48.281Z,12.36
2022-10-18T19:16:28.667Z,12.36
2022-10-18T19:19:17.045Z,12.40
2022-10-18T19:21:52.076Z,12.45
2022-10-18T19:24:19.501Z,12.35
2022-10-18T19:26:46.946Z,12.42
2022-10-18T19:29:18.094Z,12.46
2022-10-18T19:31:44.831Z,12.39
2022-10-18T19:34:12.313Z,12.41
2022-10-18T19:36:39.536Z,12.40
2022-10-18T19:39:07.227Z,12.37
2022-10-18T19:41:33.728Z,12.38
2022-10-18T19:44:00.361Z,12.39
2022-10-18T19:46:26.977Z,12.41
2022-10-18T19:48:53.575Z,12.38
2022-10-18T19:51:23.002Z,12.37
2022-10-18T19:53:51.884Z,12.35
2022-10-18T19:56:20.952Z,12.29
2022-10-18T19:58:47.728Z,12.17
2022-10-18T20:01:14.618Z,12.21
2022-10-18T20:03:41.163Z,12.15
2022-10-18T20:06:07.864Z,12.18
2022-10-18T20:08:34.913Z,12.12
2022-10-18T20:11:02.531Z,12.19
2022-10-18T20:13:29.152Z,12.03
2022-10-18T20:15:55.814Z,11.84
2022-10-18T20:18:22.343Z,11.86
2022-10-18T20:20:48.969Z,11.79
2022-10-18T20:23:18.536Z,11.81
2022-10-18T20:26:04.740Z,11.68
2022-10-18T20:28:31.363Z,11.67
2022-10-18T20:31:11.115Z,11.63
2022-10-18T20:33:37.722Z,11.55
2022-10-18T20:36:11.816Z,11.39
2022-10-18T20:38:38.992Z,11.32
2022-10-18T20:41:06.927Z,11.29
2022-10-18T20:43:34.850Z,11.31
2022-10-18T20:46:01.489Z,11.37
2022-10-18T20:48:28.124Z,11.36
2022-10-18T20:50:54.668Z,11.22
2022-10-18T20:53:21.214Z,11.13
2022-10-18T20:55:48.367Z,11.02
2022-10-18T20:58:22.194Z,10.90
2022-10-18T21:00:55.817Z,10.93
2022-10-18T21:03:22.489Z,10.90
2022-10-18T21:05:52.335Z,10.94
2022-10-18T21:08:19.833Z,10.88
2022-10-18T21:10:52.646Z,10.85
2022-10-18T21:13:24.943Z,10.73
2022-10-18T21:16:00.581Z,10.68
2022-10-18T21:18:31.551Z,10.57
2022-10-18T21:23:38.503Z,10.52
2022-10-18T21:26:16.436Z,10.52
2022-10-18T21:28:47.956Z,10.45
2022-10-18T21:31:16.494Z,10.30
2022-10-18T21:33:43.335Z,10.31
2022-10-18T21:36:13.342Z,10.22
2022-10-18T21:38:39.900Z,10.29
2022-10-18T21:41:10.132Z,10.35
2022-10-18T21:43:40.051Z,10.24
2022-10-18T21:46:06.903Z,9.99
2022-10-18T21:48:33.544Z,10.27
2022-10-18T21:51:09.731Z,10.33
2022-10-18T21:53:36.928Z,10.27
2022-10-18T21:56:07.625Z,10.36
2022-10-18T21:58:35.256Z,10.34
2022-10-18T22:01:24.781Z,10.36
2022-10-18T22:03:52.513Z,10.33
2022-10-18T22:06:19.256Z,10.31
2022-10-18T22:08:53.226Z,10.40
2022-10-18T22:11:21.898Z,10.35
2022-10-18T22:13:48.725Z,10.31
2022-10-18T22:16:15.641Z,10.35
2022-10-18T22:18:42.584Z,10.33
2022-10-18T22:21:09.974Z,10.46
2022-10-18T22:23:44.598Z,10.38
2022-10-18T22:26:12.962Z,10.31
2022-10-18T22:28:40.190Z,10.22
2022-10-18T22:31:06.817Z,10.26
2022-10-18T22:33:33.434Z,10.26
2022-10-18T22:36:00.210Z,10.17
2022-10-18T22:38:27.880Z,10.14
2022-10-18T22:40:54.424Z,10.03
2022-10-18T22:43:21.046Z,10.05
2022-10-18T22:45:47.588Z,10.07
2022-10-18T22:48:21.501Z,10.12
2022-10-18T22:50:48.075Z,10.08
2022-10-18T22:53:17.455Z,10.18
2022-10-18T22:55:44.341Z,10.27
2022-10-18T22:58:15.684Z,10.26
2022-10-18T23:00:42.481Z,10.20
2022-10-18T23:03:10.802Z,10.15
2022-10-18T23:05:38.632Z,10.11
2022-10-18T23:08:09.518Z,10.16
2022-10-18T23:10:39.947Z,10.12
2022-10-18T23:13:06.668Z,10.17
2022-10-18T23:15:39.013Z,10.18
2022-10-18T23:18:05.770Z,10.16
2022-10-18T23:20:32.281Z,10.14
2022-10-18T23:22:58.773Z,10.07
2022-10-18T23:25:25.301Z,10.01
2022-10-18T23:27:51.848Z,10.02
2022-10-18T23:30:18.549Z,9.91
2022-10-18T23:32:45.145Z,9.85
2022-10-18T23:35:11.725Z,9.82
2022-10-18T23:37:41.894Z,9.77
2022-10-18T23:40:09.319Z,9.75
2022-10-18T23:42:36.081Z,9.75
2022-10-18T23:45:02.908Z,9.64
2022-10-18T23:47:29.670Z,9.52
2022-10-18T23:49:56.346Z,9.48
2022-10-18T23:52:24.182Z,9.51
2022-10-18T23:54:51.051Z,9.45
2022-10-18T23:57:17.530Z,9.39
2022-10-18T23:59:44.013Z,9.30
